createdAt,value
2023-01-29T00:00:21.608Z,95017.84
2023-01-29T00:03:05.838Z,95026.19
2023-01-29T00:05:50.340Z,95013.72
2023-01-29T00:08:34.831Z,95029.06
2023-01-29T00:11:18.245Z,95031.44
2023-01-29T00:14:01.404Z,95040.41
2023-01-29T00:16:44.540Z,95029.69
2023-01-29T00:19:27.884Z,95032.25
2023-01-29T00:22:14.876Z,95039.28
2023-01-29T00:25:00.597Z,95041.53
2023-01-29T00:27:46.419Z,95054.47
2023-01-29T00:30:29.645Z,95051.75
2023-01-29T00:33:13.679Z,95056.88
2023-01-29T00:35:57.155Z,95060.69
2023-01-29T00:38:41.690Z,95060.53
2023-01-29T00:41:42.479Z,95059.28
2023-01-29T00:44:44.449Z,95062.44
2023-01-29T00:47:34.850Z,95056.84
2023-01-29T00:50:18.596Z,95054.31
2023-01-29T00:53:01.907Z,95054.63
2023-01-29T00:55:47.569Z,95053.38
2023-01-29T00:58:34.318Z,95059.44
2023-01-29T01:01:17.905Z,95052.56
2023-01-29T01:04:00.115Z,95055.56
2023-01-29T01:06:44.247Z,95055.75
2023-01-29T01:09:46.885Z,95054.78
2023-01-29T01:12:33.175Z,95052.88
2023-01-29T01:15:16.303Z,95051.09
2023-01-29T01:18:01.118Z,95044.22
2023-01-29T01:20:44.304Z,95050.94
2023-01-29T01:23:28.086Z,95040.72
2023-01-29T01:26:11.953Z,95040.88
2023-01-29T01:28:56.502Z,95042.00
2023-01-29T01:31:39.671Z,95047.28
2023-01-29T01:34:23.166Z,95041.81
2023-01-29T01:37:06.581Z,95046.63
2023-01-29T01:39:50.645Z,95046.75
2023-01-29T01:42:33.774Z,95048.69
2023-01-29T01:45:24.883Z,95049.03
2023-01-29T01:48:14.392Z,95048.06
2023-01-29T01:51:03.365Z,95056.22
2023-01-29T01:53:58.633Z,95061.63
2023-01-29T01:56:45.963Z,95060.88
2023-01-29T01:59:29.076Z,95060.38
2023-01-29T02:02:32.092Z,95067.75
2023-01-29T02:05:33.492Z,95065.19
2023-01-29T02:08:36.578Z,95066.00
2023-01-29T02:11:19.689Z,95066.44
2023-01-29T02:14:03.658Z,95060.22
2023-01-29T02:16:46.797Z,95061.81
2023-01-29T02:19:45.720Z,95059.25
2023-01-29T02:22:54.118Z,95068.66
2023-01-29T02:26:16.116Z,95065.31
2023-01-29T02:29:27.597Z,95065.97
2023-01-29T02:32:21.677Z,95076.81
2023-01-29T02:35:30.240Z,95081.09
2023-01-29T02:38:22.290Z,95079.19
2023-01-29T02:41:12.049Z,95087.00
2023-01-29T02:44:03.115Z,95089.59
2023-01-29T02:46:53.911Z,95087.81
2023-01-29T02:49:45.600Z,95086.69
2023-01-29T02:52:37.729Z,95094.19
2023-01-29T02:55:26.088Z,95094.34
2023-01-29T02:58:14.746Z,95088.94
2023-01-29T03:01:05.734Z,95094.38
2023-01-29T03:03:57.017Z,95088.59
2023-01-29T03:06:44.336Z,95091.50
2023-01-29T03:09:34.508Z,95091.00
2023-01-29T03:12:39.453Z,95096.13
2023-01-29T03:15:29.566Z,95091.50
2023-01-29T03:18:27.572Z,95090.22
2023-01-29T03:21:34.493Z,95098.19
2023-01-29T03:24:39.273Z,95101.25
2023-01-29T03:27:45.460Z,95102.66
2023-01-29T03:30:49.584Z,95107.78
2023-01-29T03:33:40.539Z,95099.47
2023-01-29T03:36:38.141Z,95107.78
2023-01-29T03:39:21.316Z,95108.44
2023-01-29T03:42:10.215Z,95106.69
2023-01-29T03:45:00.496Z,95108.44
2023-01-29T03:47:50.488Z,95108.44
2023-01-29T03:50:40.303Z,95100.94
2023-01-29T03:53:29.767Z,95097.91
2023-01-29T03:56:29.390Z,95104.28
2023-01-29T04:02:27.648Z,95102.84
2023-01-29T04:08:18.313Z,95105.06
2023-01-29T04:11:09.764Z,95106.00
2023-01-29T04:13:58.327Z,95109.66
2023-01-29T04:16:46.306Z,95116.41
2023-01-29T04:19:29.959Z,95109.53
2023-01-29T04:22:18.540Z,95103.47
2023-01-29T04:25:08.727Z,95111.75
2023-01-29T04:28:05.747Z,95114.81
2023-01-29T04:34:05.333Z,95108.72
2023-01-29T04:37:02.735Z,95122.31
2023-01-29T04:39:50.989Z,95123.13
2023-01-29T04:42:42.957Z,95113.00
2023-01-29T04:45:38.212Z,95122.13
2023-01-29T04:48:28.717Z,95121.81
2023-01-29T04:51:23.519Z,95107.72
2023-01-29T04:54:13.905Z,95121.47
2023-01-29T04:57:03.159Z,95127.56
2023-01-29T04:59:52.437Z,95124.69
2023-01-29T05:02:42.693Z,95130.41
2023-01-29T05:05:25.967Z,95124.38
2023-01-29T05:08:10.577Z,95127.38
2023-01-29T05:10:56.171Z,95128.03
2023-01-29T05:13:43.535Z,95131.06
2023-01-29T05:16:32.075Z,95134.00
2023-01-29T05:19:18.163Z,95140.16
2023-01-29T05:22:01.793Z,95133.94
2023-01-29T05:24:47.063Z,95142.59
2023-01-29T05:27:53.353Z,95148.28
2023-01-29T05:30:38.279Z,95147.19
2023-01-29T05:33:23.506Z,95150.88
2023-01-29T05:36:10.568Z,95156.59
2023-01-29T05:38:53.733Z,95159.34
2023-01-29T05:41:36.896Z,95157.63
2023-01-29T05:44:20.576Z,95150.88
2023-01-29T05:47:04.088Z,95152.66
2023-01-29T05:49:47.479Z,95150.59
2023-01-29T05:52:32.071Z,95157.78
2023-01-29T05:55:15.138Z,95161.09
2023-01-29T05:57:58.201Z,95165.38
2023-01-29T06:00:41.649Z,95163.34
2023-01-29T06:03:24.851Z,95165.00
2023-01-29T06:06:08.436Z,95167.50
2023-01-29T06:08:53.189Z,95177.59
2023-01-29T06:11:36.359Z,95181.25
2023-01-29T06:14:19.969Z,95186.41
2023-01-29T06:17:03.090Z,95177.47
2023-01-29T06:19:48.310Z,95189.19
2023-01-29T06:22:33.440Z,95191.88
2023-01-29T06:25:18.073Z,95188.72
2023-01-29T06:28:01.160Z,95192.88
2023-01-29T06:30:49.212Z,95193.66
2023-01-29T06:33:32.714Z,95204.41
2023-01-29T06:36:15.859Z,95208.88
2023-01-29T06:39:01.257Z,95216.09
2023-01-29T06:41:47.544Z,95207.66
2023-01-29T06:44:30.674Z,95212.16
2023-01-29T06:47:13.778Z,95217.94
2023-01-29T06:49:59.300Z,95212.63
2023-01-29T06:52:42.512Z,95219.69
2023-01-29T06:55:25.704Z,95222.06
2023-01-29T06:58:11.682Z,95221.28
2023-01-29T07:00:54.875Z,95223.34
2023-01-29T07:03:38.544Z,95224.19
2023-01-29T07:06:22.386Z,95225.47
2023-01-29T07:09:06.316Z,95219.88
2023-01-29T07:11:49.805Z,95236.84
2023-01-29T07:14:34.626Z,95231.53
2023-01-29T07:17:17.760Z,95223.25
2023-01-29T07:20:00.936Z,95232.84
2023-01-29T07:22:47.649Z,95236.84
2023-01-29T07:25:31.178Z,95239.06
2023-01-29T07:28:14.410Z,95241.78
2023-01-29T07:30:59.555Z,95248.88
2023-01-29T07:33:50.210Z,95246.75
2023-01-29T07:36:33.365Z,95250.47
2023-01-29T07:39:16.832Z,95253.19
2023-01-29T07:42:03.991Z,95251.72
2023-01-29T07:44:47.086Z,95245.31
2023-01-29T07:47:33.080Z,95247.41
2023-01-29T07:50:16.534Z,95249.97
2023-01-29T07:53:03.041Z,95252.53
2023-01-29T07:55:46.438Z,95252.38
2023-01-29T07:58:31.918Z,95266.59
2023-01-29T08:01:15.209Z,95268.84
2023-01-29T08:03:59.799Z,95263.88
2023-01-29T08:06:44.392Z,95266.94
2023-01-29T08:09:27.502Z,95266.28
2023-01-29T08:12:10.691Z,95270.16
2023-01-29T08:15:02.767Z,95270.78
2023-01-29T08:17:57.250Z,95273.84
2023-01-29T08:20:42.931Z,95281.03
2023-01-29T08:23:26.094Z,95273.97
2023-01-29T08:26:11.669Z,95281.00
2023-01-29T08:28:56.028Z,95274.59
2023-01-29T08:31:39.197Z,95277.16
2023-01-29T08:34:22.307Z,95277.16
2023-01-29T08:37:07.036Z,95275.84
2023-01-29T08:39:50.199Z,95280.50
2023-01-29T08:42:33.326Z,95284.13
2023-01-29T08:45:17.667Z,95291.66
2023-01-29T08:48:01.368Z,95285.88
2023-01-29T08:50:44.853Z,95276.28
2023-01-29T08:53:30.947Z,95294.38
2023-01-29T08:56:14.191Z,95298.81
2023-01-29T08:58:59.723Z,95304.91
2023-01-29T09:01:42.814Z,95305.28
2023-01-29T09:04:29.310Z,95305.94
2023-01-29T09:07:12.436Z,95302.09
2023-01-29T09:09:56.984Z,95310.47
2023-01-29T09:12:40.109Z,95310.50
2023-01-29T09:15:23.471Z,95304.03
2023-01-29T09:18:07.246Z,95301.19
2023-01-29T09:20:52.236Z,95302.28
2023-01-29T09:23:36.004Z,95305.34
2023-01-29T09:26:20.944Z,95298.75
2023-01-29T09:29:04.099Z,95301.50
2023-01-29T09:31:47.508Z,95294.47
2023-01-29T09:34:30.840Z,95301.19
2023-01-29T09:37:13.968Z,95301.03
2023-01-29T09:39:57.032Z,95294.63
2023-01-29T09:42:51.031Z,95297.03
2023-01-29T09:45:34.938Z,95292.84
2023-01-29T09:48:18.627Z,95290.44
2023-01-29T09:51:06.750Z,95289.63
2023-01-29T09:53:58.711Z,95253.41
2023-01-29T09:56:45.314Z,95282.63
2023-01-29T09:59:35.237Z,95270.81
2023-01-29T10:02:38.664Z,95274.16
2023-01-29T10:05:34.545Z,95275.88
2023-01-29T10:08:44.273Z,95269.63
2023-01-29T10:11:43.448Z,95264.38
2023-01-29T10:14:38.538Z,95256.66
2023-01-29T10:17:50.315Z,95267.78
2023-01-29T10:20:51.401Z,95265.22
2023-01-29T10:23:38.547Z,95262.72
2023-01-29T10:26:27.740Z,95258.84
2023-01-29T10:29:17.942Z,95255.03
2023-01-29T10:32:08.286Z,95255.31
2023-01-29T10:34:58.136Z,95250.03
2023-01-29T10:37:45.818Z,95252.75
2023-01-29T10:40:38.348Z,95253.38
2023-01-29T10:43:32.221Z,95251.56
2023-01-29T10:46:24.873Z,95246.91
2023-01-29T10:49:23.279Z,95242.53
2023-01-29T10:52:19.161Z,95238.53
2023-01-29T10:55:16.155Z,95241.72
2023-01-29T10:58:10.860Z,95236.97
2023-01-29T11:00:54.132Z,95242.38
2023-01-29T11:03:37.780Z,95239.72
2023-01-29T11:06:25.553Z,95237.84
2023-01-29T11:09:19.166Z,95241.22
2023-01-29T11:12:08.320Z,95227.09
2023-01-29T11:14:56.560Z,95227.63
2023-01-29T11:17:40.428Z,95229.84
2023-01-29T11:20:29.638Z,95228.94
2023-01-29T11:23:38.073Z,95229.38
2023-01-29T11:26:24.312Z,95236.28
2023-01-29T11:29:39.866Z,95215.88
2023-01-29T11:32:35.531Z,95211.25
2023-01-29T11:35:41.684Z,95220.75
2023-01-29T11:39:23.979Z,95160.75
2023-01-29T11:42:21.814Z,95211.31
2023-01-29T11:45:06.813Z,95200.03
2023-01-29T11:47:56.536Z,95194.69
2023-01-29T11:50:44.763Z,95191.94
2023-01-29T11:53:40.260Z,95191.78
2023-01-29T11:56:33.550Z,95195.88
2023-01-29T11:59:40.174Z,95190.03
2023-01-29T12:02:36.421Z,95186.31
2023-01-29T12:05:30.454Z,95185.50
2023-01-29T12:08:19.406Z,95176.44
2023-01-29T12:11:09.929Z,95185.69
2023-01-29T12:13:55.581Z,95183.28
2023-01-29T12:16:50.994Z,95183.03
2023-01-29T12:19:44.651Z,95179.47
2023-01-29T12:22:44.543Z,95183.63
2023-01-29T12:25:39.929Z,95192.94
2023-01-29T12:28:41.366Z,95187.09
2023-01-29T12:31:40.506Z,95187.09
2023-01-29T12:34:32.372Z,95190.19
2023-01-29T12:37:25.663Z,95187.56
2023-01-29T12:40:16.823Z,95196.69
2023-01-29T12:43:09.585Z,95197.03
2023-01-29T12:45:57.009Z,95194.31
2023-01-29T12:48:45.187Z,95189.16
2023-01-29T12:51:34.960Z,95185.72
2023-01-29T12:54:23.513Z,95185.66
2023-01-29T12:57:11.781Z,95195.19
2023-01-29T12:59:59.707Z,95191.75
2023-01-29T13:02:53.419Z,95198.69
2023-01-29T13:05:45.517Z,95191.00
2023-01-29T13:08:39.755Z,95196.00
2023-01-29T13:11:27.405Z,95187.06
2023-01-29T13:14:24.723Z,95186.41
2023-01-29T13:17:14.483Z,95182.31
2023-01-29T13:20:05.205Z,95189.38
2023-01-29T13:22:49.648Z,95181.34
2023-01-29T13:25:35.288Z,95191.56
2023-01-29T13:28:21.011Z,95192.69
2023-01-29T13:31:19.696Z,95195.00
2023-01-29T13:34:18.382Z,95205.53
2023-01-29T13:37:04.263Z,95205.78
2023-01-29T13:39:52.115Z,95208.97
2023-01-29T13:42:53.450Z,95201.72
2023-01-29T13:45:50.345Z,95215.41
2023-01-29T13:48:36.965Z,95214.53
2023-01-29T13:51:23.751Z,95213.09
2023-01-29T13:54:17.147Z,95215.38
2023-01-29T13:57:04.568Z,95218.00
2023-01-29T13:59:54.738Z,95214.38
2023-01-29T14:02:43.400Z,95214.06
2023-01-29T14:05:41.489Z,95221.03
2023-01-29T14:08:45.459Z,95222.31
2023-01-29T14:11:37.652Z,95224.56
2023-01-29T14:15:02.785Z,95229.69
2023-01-29T14:18:16.657Z,95217.56
2023-01-29T14:21:02.752Z,95228.13
2023-01-29T14:23:48.249Z,95240.66
2023-01-29T14:26:34.520Z,95237.16
2023-01-29T14:29:29.066Z,95244.84
2023-01-29T14:32:21.938Z,95246.13
2023-01-29T14:35:21.180Z,95244.53
2023-01-29T14:38:08.818Z,95246.59
2023-01-29T14:40:52.840Z,95252.38
2023-01-29T14:43:36.315Z,95255.09
2023-01-29T14:46:45.984Z,95255.56
2023-01-29T14:49:57.909Z,95249.81
2023-01-29T14:52:51.193Z,95251.25
2023-01-29T14:55:41.043Z,95246.63
2023-01-29T14:58:31.038Z,95242.59
2023-01-29T15:01:22.915Z,95234.91
2023-01-29T15:04:14.082Z,95246.75
2023-01-29T15:07:04.374Z,95248.50
2023-01-29T15:09:51.109Z,95253.34
2023-01-29T15:12:40.487Z,95248.50
2023-01-29T15:15:36.828Z,95248.03
2023-01-29T15:18:28.566Z,95249.44
2023-01-29T15:21:16.484Z,95240.34
2023-01-29T15:24:09.660Z,95248.63
2023-01-29T15:26:52.818Z,95242.38
2023-01-29T15:29:36.789Z,95257.88
2023-01-29T15:32:30.752Z,95245.53
2023-01-29T15:35:28.389Z,95261.25
2023-01-29T15:38:24.090Z,95261.06
2023-01-29T15:41:20.357Z,95259.28
2023-01-29T15:44:03.763Z,95257.03
2023-01-29T15:46:51.247Z,95263.94
2023-01-29T15:49:39.263Z,95262.16
2023-01-29T15:52:28.588Z,95261.03
2023-01-29T15:55:18.082Z,95260.38
2023-01-29T15:58:02.997Z,95258.44
2023-01-29T16:00:52.255Z,95264.72
2023-01-29T16:03:38.965Z,95262.91
2023-01-29T16:06:23.435Z,95272.81
2023-01-29T16:09:11.734Z,95271.72
2023-01-29T16:11:58.237Z,95263.56
2023-01-29T16:14:45.210Z,95278.28
2023-01-29T16:17:35.349Z,95283.03
2023-01-29T16:20:32.589Z,95277.75
2023-01-29T16:23:21.756Z,95283.22
2023-01-29T16:26:08.166Z,95278.56
2023-01-29T16:28:51.719Z,95280.00
2023-01-29T16:31:40.236Z,95283.34
2023-01-29T16:34:31.407Z,95284.94
2023-01-29T16:37:23.006Z,95285.25
2023-01-29T16:40:17.119Z,95291.50
2023-01-29T16:43:48.658Z,95287.53
2023-01-29T16:46:37.710Z,95290.44
2023-01-29T16:49:47.328Z,95290.72
2023-01-29T16:52:32.744Z,95287.53
2023-01-29T16:55:22.076Z,95283.09
2023-01-29T16:58:13.812Z,95281.22
2023-01-29T17:01:06.691Z,95285.97
2023-01-29T17:03:58.834Z,95297.63
2023-01-29T17:06:46.075Z,95300.56
2023-01-29T17:09:35.616Z,95285.00
2023-01-29T17:12:21.990Z,95277.50
2023-01-29T17:15:27.242Z,95274.41
2023-01-29T17:18:19.036Z,95278.81
2023-01-29T17:21:03.630Z,95275.16
2023-01-29T17:23:46.731Z,95276.75
2023-01-29T17:26:33.182Z,95282.03
2023-01-29T17:29:19.117Z,95292.56
2023-01-29T17:32:02.670Z,95274.22
2023-01-29T17:34:46.791Z,95285.06
2023-01-29T17:37:31.311Z,95283.03
2023-01-29T17:40:31.435Z,95280.78
2023-01-29T17:43:14.560Z,95291.03
2023-01-29T17:45:57.828Z,95284.47
2023-01-29T17:48:41.308Z,95287.84
2023-01-29T17:51:28.881Z,95272.44
2023-01-29T17:54:13.566Z,95286.41
2023-01-29T17:57:00.288Z,95282.09
2023-01-29T17:59:45.010Z,95286.31
2023-01-29T18:02:31.299Z,95300.34
2023-01-29T18:05:16.935Z,95288.38
2023-01-29T18:08:00.503Z,95291.59
2023-01-29T18:10:47.965Z,95291.38
2023-01-29T18:13:31.173Z,95283.72
2023-01-29T18:16:14.591Z,95284.63
2023-01-29T18:18:57.715Z,95284.00
2023-01-29T18:21:41.091Z,95272.00
2023-01-29T18:24:26.647Z,95280.13
2023-01-29T18:27:13.186Z,95276.31
2023-01-29T18:29:57.868Z,95276.31
2023-01-29T18:32:41.155Z,95272.00
2023-01-29T18:35:24.872Z,95272.72
2023-01-29T18:38:08.096Z,95274.31
2023-01-29T18:40:51.363Z,95276.50
2023-01-29T18:43:38.470Z,95275.94
2023-01-29T18:46:24.355Z,95271.84
2023-01-29T18:49:09.253Z,95270.34
2023-01-29T18:51:55.337Z,95269.41
2023-01-29T18:54:40.280Z,95261.91
2023-01-29T18:58:29.371Z,95268.47
2023-01-29T19:00:28.106Z,95268.00
2023-01-29T19:03:11.876Z,95266.69
2023-01-29T19:05:58.368Z,95272.06
2023-01-29T19:08:43.089Z,95272.91
2023-01-29T19:11:28.500Z,95263.59
2023-01-29T19:14:11.522Z,95272.03
2023-01-29T19:16:59.565Z,95276.66
2023-01-29T19:19:42.850Z,95273.16
2023-01-29T19:22:29.057Z,95266.16
2023-01-29T19:25:21.689Z,95271.47
2023-01-29T19:28:05.369Z,95270.81
2023-01-29T19:30:48.969Z,95271.00
2023-01-29T19:33:35.432Z,95264.91
2023-01-29T19:36:20.911Z,95272.09
2023-01-29T19:39:04.180Z,95264.09
2023-01-29T19:41:48.903Z,95270.81
2023-01-29T19:44:32.511Z,95269.84
2023-01-29T19:47:16.159Z,95278.38
2023-01-29T19:50:02.540Z,95274.25
2023-01-29T19:52:51.778Z,95272.63
2023-01-29T19:55:37.631Z,95280.72
2023-01-29T19:58:21.084Z,95277.66
2023-01-29T20:01:06.946Z,95280.88
2023-01-29T20:03:54.372Z,95273.38
2023-01-29T20:06:41.280Z,95279.16
2023-01-29T20:09:27.455Z,95278.94
2023-01-29T20:12:13.134Z,95279.97
2023-01-29T20:14:56.431Z,95285.59
2023-01-29T20:17:40.595Z,95275.50
2023-01-29T20:20:24.337Z,95274.53
2023-01-29T20:23:25.047Z,95278.75
2023-01-29T20:26:16.833Z,95274.09
2023-01-29T20:29:02.449Z,95277.47
2023-01-29T20:31:46.034Z,95273.63
2023-01-29T20:34:29.372Z,95283.66
2023-01-29T20:37:12.526Z,95287.69
2023-01-29T20:39:57.086Z,95283.38
2023-01-29T20:42:40.203Z,95277.75
2023-01-29T20:45:25.189Z,95276.47
2023-01-29T20:48:08.984Z,95279.66
2023-01-29T20:50:52.518Z,95278.22
2023-01-29T20:53:36.242Z,95271.75
2023-01-29T20:56:32.170Z,95278.47
2023-01-29T20:59:20.711Z,95278.47
2023-01-29T21:02:06.700Z,95282.47
2023-01-29T21:04:50.169Z,95280.06
2023-01-29T21:07:33.746Z,95290.13
2023-01-29T21:10:17.800Z,95296.00
2023-01-29T21:13:03.633Z,95289.16
2023-01-29T21:15:46.777Z,95296.59
2023-01-29T21:18:30.381Z,95292.78
2023-01-29T21:21:13.782Z,95288.28
2023-01-29T21:23:58.283Z,95295.69
2023-01-29T21:26:43.772Z,95292.03
2023-01-29T21:29:30.602Z,95294.59
2023-01-29T21:32:14.213Z,95304.81
2023-01-29T21:34:57.230Z,95297.84
2023-01-29T21:37:44.163Z,95299.41
2023-01-29T21:40:27.359Z,95302.69
2023-01-29T21:43:12.223Z,95293.78
2023-01-29T21:46:02.613Z,95293.19
2023-01-29T21:48:45.780Z,95291.81
2023-01-29T21:51:29.414Z,95289.63
2023-01-29T21:54:12.412Z,95287.44
2023-01-29T21:56:57.383Z,95284.75
2023-01-29T21:59:40.549Z,95285.25
2023-01-29T22:02:26.641Z,95275.31
2023-01-29T22:05:18.939Z,95275.19
2023-01-29T22:08:04.996Z,95262.09
2023-01-29T22:10:48.274Z,95258.25
2023-01-29T22:13:35.611Z,95257.19
2023-01-29T22:16:18.742Z,95259.06
2023-01-29T22:19:03.363Z,95253.63
2023-01-29T22:21:46.493Z,95254.41
2023-01-29T22:24:29.768Z,95254.84
2023-01-29T22:27:13.101Z,95254.84
2023-01-29T22:29:57.003Z,95248.50
2023-01-29T22:32:40.175Z,95248.75
2023-01-29T22:35:24.687Z,95245.88
2023-01-29T22:38:07.935Z,95251.03
2023-01-29T22:40:51.389Z,95247.84
2023-01-29T22:43:34.576Z,95245.94
2023-01-29T22:46:19.603Z,95244.63
2023-01-29T22:49:02.695Z,95241.94
2023-01-29T22:51:48.562Z,95233.44
2023-01-29T22:54:31.614Z,95230.56
2023-01-29T22:57:16.413Z,95235.69
2023-01-29T22:59:59.636Z,95235.19
2023-01-29T23:02:42.720Z,95220.97
2023-01-29T23:05:25.740Z,95227.81
2023-01-29T23:08:12.695Z,95223.81
2023-01-29T23:10:55.834Z,95207.47
2023-01-29T23:13:38.922Z,95218.63
2023-01-29T23:16:28.166Z,95218.91
2023-01-29T23:19:12.829Z,95224.84
2023-01-29T23:21:55.868Z,95219.25
2023-01-29T23:24:40.351Z,95218.44
2023-01-29T23:27:22.379Z,95217.97
2023-01-29T23:30:06.747Z,95212.81
2023-01-29T23:32:52.381Z,95209.81
2023-01-29T23:35:35.440Z,95215.41
2023-01-29T23:38:18.642Z,95220.44
2023-01-29T23:41:03.101Z,95216.25
2023-01-29T23:43:46.429Z,95219.06
2023-01-29T23:46:29.589Z,95220.75
2023-01-29T23:49:12.876Z,95213.25
2023-01-29T23:51:56.014Z,95206.09
2023-01-29T23:54:39.107Z,95205.13
2023-01-29T23:57:28.563Z,95212.16
